EDI weather

Edinburgh Airport
Edinburgh, Scotland, United Kingdom

Public forecast

Using degrees Celsius for public forecast. Weather courtesy of forecast.io.

Current aviation weather report (METAR) for Edinburgh Airport

Retrieved 2019/10/15 08:20 UTC (0 seconds ago):

EGPH 150820Z VRB03KT 5000 BR BKN004 09/09 Q1002

Aviation forecast (TAF) for Edinburgh Airport

Retrieved 2019/10/15 06:00 UTC (2 hours ago):

TAF EGPH 150459Z 1506/1606 VRB04KT 9999 BKN012 TEMPO 1506/1512 SCT016 PROB40 TEMPO 1506/1511 4000 -RADZ BR BKN006 BECMG 1512/1515 SCT020 PROB30 TEMPO 1517/1520 6000 BECMG 1519/1522 08010KT PROB30 TEMPO 1522/1602 BKN012 TEMPO 1602/1606 7000 -RA BKN012